Terminal Aerodrome Forecast
Issued by NWS

Home | Current Version | Previous Version | Text Only | Print | Product List | Glossary On
Versions: 1 2 3 4 5 6 7 8 9 10 11 12 13 14 15
000
FTUS45 KABQ 312300
TAFGUP
TAF
KGUP 312332Z 0100/0124 33010KT P6SM VCTS BKN070CB OVC100
     FM010300 21010KT P6SM BKN070 OVC120
     FM011900 27015G25KT P6SM VCTS BKN050CB
     FM012200 30010G20KT P6SM VCSH BKN050=

USA.gov is the U.S. government's official web portal to all federal, state and local government web resources and services.